createdAt,value
2023-07-24T00:06:57.577Z,27.11
2023-07-24T00:17:02.928Z,27.10
2023-07-24T00:27:08.343Z,27.08
2023-07-24T00:37:13.990Z,27.07
2023-07-24T00:47:19.391Z,27.06
2023-07-24T00:57:24.322Z,27.05
2023-07-24T01:07:30.188Z,27.05
2023-07-24T01:17:35.587Z,27.03
2023-07-24T01:27:40.765Z,27.03
2023-07-24T01:37:46.142Z,27.01
2023-07-24T01:47:51.238Z,27.00
2023-07-24T01:57:56.701Z,27.00
2023-07-24T02:08:01.747Z,26.99
2023-07-24T02:18:07.129Z,26.98
2023-07-24T02:28:12.555Z,26.97
2023-07-24T02:38:18.043Z,26.97
2023-07-24T02:48:23.275Z,26.95
2023-07-24T02:58:28.488Z,26.95
2023-07-24T03:08:33.669Z,26.95
2023-07-24T03:18:39.154Z,26.93
2023-07-24T03:28:44.331Z,26.93
2023-07-24T03:38:49.705Z,26.94
2023-07-24T03:48:55.101Z,26.93
2023-07-24T03:59:00.274Z,26.92
2023-07-24T04:09:05.546Z,26.92
2023-07-24T04:19:10.816Z,26.91
2023-07-24T04:29:16.312Z,26.90
2023-07-24T04:39:22.036Z,26.89
2023-07-24T04:49:27.405Z,26.89
2023-07-24T04:59:32.998Z,26.87
2023-07-24T05:09:37.981Z,26.87
2023-07-24T05:19:43.219Z,26.87
2023-07-24T05:29:48.355Z,26.87
2023-07-24T05:39:53.952Z,26.86
2023-07-24T05:49:59.075Z,26.86
2023-07-24T06:00:04.466Z,26.86
2023-07-24T06:10:10.068Z,26.87
2023-07-24T06:20:15.771Z,26.86
2023-07-24T06:30:21.145Z,26.86
2023-07-24T06:40:26.576Z,26.86
2023-07-24T06:50:31.854Z,26.86
2023-07-24T07:00:39.855Z,26.88
2023-07-24T07:10:45.639Z,26.91
2023-07-24T07:20:51.455Z,26.94
2023-07-24T07:30:56.926Z,26.99
2023-07-24T07:41:02.346Z,27.03
2023-07-24T07:51:07.894Z,27.05
2023-07-24T08:01:13.051Z,27.09
2023-07-24T08:11:18.486Z,27.12
2023-07-24T08:21:23.815Z,27.15
2023-07-24T08:31:29.346Z,27.19
2023-07-24T08:41:34.953Z,27.21
2023-07-24T08:51:40.260Z,27.21
2023-07-24T09:01:45.729Z,27.21
2023-07-24T09:11:51.772Z,27.19
2023-07-24T09:21:56.865Z,27.18
2023-07-24T09:32:02.562Z,27.17
2023-07-24T09:42:08.012Z,27.16
2023-07-24T09:52:13.450Z,27.17
2023-07-24T10:02:19.588Z,27.19
2023-07-24T10:12:24.804Z,27.22
2023-07-24T10:22:29.802Z,27.24
2023-07-24T10:32:35.403Z,27.27
2023-07-24T10:42:40.918Z,27.28
2023-07-24T10:52:46.763Z,27.31
2023-07-24T11:02:52.408Z,27.30
2023-07-24T11:12:57.662Z,27.33
2023-07-24T11:23:03.232Z,27.36
2023-07-24T11:33:08.675Z,27.38
2023-07-24T11:43:14.013Z,27.40
2023-07-24T11:53:19.232Z,27.40
2023-07-24T12:03:25.175Z,27.42
2023-07-24T12:13:30.732Z,27.44
2023-07-24T12:23:36.464Z,27.46
2023-07-24T12:33:41.866Z,27.49
2023-07-24T12:43:47.202Z,27.51
2023-07-24T12:54:01.449Z,27.54
2023-07-24T13:04:03.998Z,27.58
2023-07-24T13:14:09.508Z,27.60
2023-07-24T13:24:14.910Z,27.65
2023-07-24T13:34:20.273Z,27.69
2023-07-24T13:44:25.537Z,27.72
2023-07-24T13:54:31.071Z,27.76
2023-07-24T14:04:36.322Z,27.76
2023-07-24T14:14:41.908Z,27.79
2023-07-24T14:24:47.135Z,27.80
2023-07-24T14:34:52.460Z,27.81
2023-07-24T14:44:57.328Z,27.84
2023-07-24T14:55:02.619Z,27.85
2023-07-24T15:05:07.806Z,27.87
2023-07-24T15:15:13.689Z,27.89
2023-07-24T15:25:19.287Z,27.90
2023-07-24T15:35:24.975Z,27.91
2023-07-24T15:45:30.504Z,27.91
2023-07-24T15:55:36.197Z,27.91
2023-07-24T16:05:41.796Z,27.93
2023-07-24T16:15:47.194Z,27.92
2023-07-24T16:25:52.477Z,27.93
2023-07-24T16:35:57.847Z,27.93
2023-07-24T16:46:24.858Z,27.96
2023-07-24T16:56:13.504Z,27.97
2023-07-24T17:06:18.525Z,27.96
2023-07-24T17:16:24.044Z,27.92
2023-07-24T17:26:29.455Z,27.94
2023-07-24T17:36:35.686Z,27.94
2023-07-24T17:46:41.464Z,27.94
2023-07-24T17:56:47.108Z,27.92
2023-07-24T18:06:53.505Z,27.90
2023-07-24T18:16:58.798Z,27.90
2023-07-24T18:27:05.794Z,27.89
2023-07-24T18:37:11.462Z,27.88
2023-07-24T18:47:16.833Z,27.86
2023-07-24T18:57:22.186Z,27.85
2023-07-24T19:07:27.785Z,27.85
2023-07-24T19:17:33.062Z,27.85
2023-07-24T19:27:38.727Z,27.82
2023-07-24T19:37:44.111Z,27.81
2023-07-24T19:47:49.674Z,27.80
2023-07-24T19:57:55.382Z,27.79
2023-07-24T20:08:01.081Z,27.79
2023-07-24T20:18:06.253Z,27.79
2023-07-24T20:28:12.184Z,27.79
2023-07-24T20:38:17.815Z,27.78
2023-07-24T20:48:23.290Z,27.77
2023-07-24T20:58:28.374Z,27.77
2023-07-24T21:08:33.449Z,27.76
2023-07-24T21:18:39.121Z,27.74
2023-07-24T21:28:44.450Z,27.75
2023-07-24T21:38:50.073Z,27.75
2023-07-24T21:48:55.518Z,27.75
2023-07-24T21:59:01.260Z,27.74
2023-07-24T22:09:06.521Z,27.74
2023-07-24T22:19:12.369Z,27.73
2023-07-24T22:29:17.665Z,27.71
2023-07-24T22:39:23.186Z,27.68
2023-07-24T22:49:28.710Z,27.65
2023-07-24T22:59:33.974Z,27.62
2023-07-24T23:09:39.485Z,27.59
2023-07-24T23:19:44.897Z,27.56
2023-07-24T23:29:50.136Z,27.54
2023-07-24T23:39:55.545Z,27.50
2023-07-24T23:50:01.069Z,27.47
